KUIN/UIN METAR and TAF weather

Enter ICAO airport designator
Station Type Date Time Source
KUIN METAR 2021/03/09 09:54 UTC NOAA

KUIN 090954Z AUTO 17006KT 10SM CLR 10/M01 A3024 RMK AO2 SLP239 T01001006


Station Type Date Time Source
KUIN Decoded METAR 2021/03/09 09:54 UTC NOAA

QUINCY MUNI. BALDWIN FIELD, IL, United States (KUIN) 39-56N 091-12W
Mar 09, 2021 - 04:54 AM EST / 2021.03.09 0954 UTC
Wind: from the S (170 degrees) at 7 MPH (6 KT):0
Visibility: 10 mile(s):0
Sky conditions: clear
Temperature: 50.0 F (10.0 C)
Dew Point: 30.9 F (-0.6 C)
Relative Humidity: 47%
Pressure (altimeter): 30.24 in. Hg (1024 hPa)
ob: KUIN 090954Z AUTO 17006KT 10SM CLR 10/M01 A3024 RMK AO2 SLP239 T01001006
cycle: 10

Station Type Date Time Source
KUIN TAF 2021/03/09 06:22 UTC NOAA

TAF KUIN 090520Z 0906/1006 19008KT P6SM SCT250
FM091400 18012G23KT P6SM FEW050 SCT200
FM100000 18011G20KT P6SM BKN060

Example: see airport list